ADDS TAF Board (Experimental) INFO Settings
IDs: Format: Expanded Condensed

KJFK - New York/Kennedy Int, NY, US

Issued at 1720 UTC 03 Aug 2015
Updated at: 1907 UTC 03 Aug 2015
Time1851Z 03/20Z 03/21Z 03/22Z 03/23Z 04/00Z 04/01Z 04/02Z 04/03Z 04/04Z 04/05Z 04/06Z 04/07Z 04/08Z
Type OBS PRVL PRVL PRVL PRVL PRVL PRVL PRVL PRVL PRVL PRVL PRVL PRVL PRVL
VIS 10 >6 >6 >6 >6 >6 >6 >6 >6 >6 >6 >6 >6 >6
CIG -- -- -- -- -- -- 100 100 100 100 100 100 100 100
Cover SCT SCT SCT SCT SCT SCT BKN BKN BKN BKN BKN BKN BKN BKN
FltCat VFR VFR VFR VFR VFR VFR VFR VFR VFR VFR VFR VFR VFR VFR
WX -- -- -- -- -- -- VCTS VCTS VCTS VCTS VCTS -- -- --
WDir 170 190 190 190 190 190 200 200 200 200 200 210 210 210
WSpd 16 21 21 21 21 21 15 15 15 15 15 10 10 10
WGst -- 26 26 26 26 26 -- -- -- -- -- -- -- --
R04/22
XWnd -10 -8 -8 -8 -8 -8 -3 -3 -3 -3 -3 -0 -0 -0
XGst -- -9 -9 -9 -9 -9 -- -- -- -- -- -- -- --
HWnd -12 -20 -20 -20 -20 -20 -15 -15 -15 -15 -15 -10 -10 -10
HGst -- -24 -24 -24 -24 -24 -- -- -- -- -- -- -- --
R13/31
XWnd -12 -20 -20 -20 -20 -20 -15 -15 -15 -15 -15 -10 -10 -10
XGst -- -24 -24 -24 -24 -24 -- -- -- -- -- -- -- --
HWnd 10 8 8 8 8 8 3 3 3 3 3 0 0 0
HGst -- 9 9 9 9 9 -- -- -- -- -- -- -- --

NOTE: TEMPO conditions in [brackets]. Keep in mind TEMPO conditions might be better (lower impact) than prevailing conditions.

Raw TAF
KJFK 031720Z 0318/0424 19016G22KT P6SM FEW050
  FM032000 19021G26KT P6SM SCT050 SCT100
  FM040100 20015KT P6SM VCTS SCT050CB BKN100
  FM040600 21010KT P6SM SCT050 BKN100
  FM041400 21015G20KT P6SM SCT050 SCT100
  FM042000 20018G25KT P6SM BKN050


Raw METAR
KJFK 031851Z 17016KT 10SM FEW060 SCT250 31/19 A2981 RMK AO2 SLP094 T03110194
KJFK 031751Z 18012KT 10SM FEW060 30/19 A2983 RMK AO2 SLP100 T03000194 10311 20244 58014
KJFK 031651Z 20010KT 10SM FEW055 30/19 A2984 RMK AO2 SLP105 T03000189

METAR Board
Radar Display
Forecast Discussion

TAF Board Legend

Potential Impact
Threat None Slight Moderate High
Visibility (sm) ≥5.1 5.1>X≥3 3>X≥1 <1
Ceiling (100 ft) ≥30.1 30.1>X≥10 10>X≥5 <5
Wind Speed (kt) <10 10≤X<20 20≤X<30 ≥30
Wind Gust (kt) <15 15≤X<25 25≤X<35 ≥35
Weather No Wx Reported VCTS,-TS,-FZRA,SN TS,FZRA +TS,+FZRA,+SN